AirNav   Air Wisconsin pilot careers
 
 1334 users online  

H17 Buffalo Municipal Airport
Buffalo, Missouri, USA

GOING TO BUFFALO?


FAA INFORMATION EFFECTIVE 28 FEBRUARY 2019

Location

FAA Identifier: H17
Lat/Long: 37-39-14.7000N / 093-05-13.2000W
37-39.245000N / 093-05.220000W
37.6540833 / -93.0870000
(estimated)
Elevation: 1154 ft. / 352 m (estimated)
Variation: 04E (1985)
From city: 1 mile N of BUFFALO, MO
Time zone: UTC -6 (UTC -5 during Daylight Saving Time)
Zip code: 65622

Airport Operations

Airport use: Open to the public
Activation date: 12/1952
Control tower: no
ARTCC: KANSAS CITY CENTER
FSS: COLUMBIA FLIGHT SERVICE STATION
NOTAMs facility: COU (NOTAM-D service available)
Attendance: UNATNDD
Wind indicator: lighted
Segmented circle: yes
Lights: ACTVT LIRL RY 04/22 & PERIMETER LGTS - CTAF.
Beacon: white-green (lighted land airport)
Operates sunset to sunrise.

Airport Communications

CTAF: 122.9

Nearby radio navigation aids

VOR radial/distance  VOR name  Freq  Var
SGFr029/21.4SPRINGFIELD VORTAC116.9004E
SHYr225/32.6SUNSHINE VOR/DME108.4000E
DGDr344/39.1DOGWOOD VORTAC109.4001E

Airport Services

Parking: tiedowns
Bottled oxygen: NONE
Bulk oxygen: NONE

Runway Information

Runway 4/22

Dimensions: 3220 x 50 ft. / 981 x 15 m
WIDTH VARIANCE 50-52 FT.
Surface: asphalt, in good condition
Runway edge lights: low intensity
RUNWAY 4  RUNWAY 22
Latitude: 37-39.025667N37-39.463500N
Longitude: 093-05.408000W093-05.031667W
Elevation: 1152.0 ft.1148.0 ft.
Traffic pattern: leftleft
Displaced threshold: 272 ft.no
Markings: basic, in good conditionbasic, in good condition
Obstructions: 44 ft. tree, 310 ft. from runway, 75 ft. right of centerline, 2:1 slope to clear
RWY 04 +1-19 FT TREES, FENCES, 35-200 FT FM RWY END, L/R.
47 ft. tree, 270 ft. from runway, 115 ft. left of centerline, 1:1 slope to clear
RWY 22 +1-35 FT FENCES, TREES & BRUSH 0-200 FT FM RY END, L/R.

Helipad H1

Dimensions: 40 x 40 ft. / 12 x 12 m
Surface: asphalt, in good condition
Runway edge lights: PERI
5 LANDING DIRECTION LIGHTS EXTENDING NORTHEAST.
Traffic pattern: leftleft
Markings: , in good condition

Airport Ownership and Management from official FAA records

Ownership: Publicly-owned
Owner: BUFFALO, CITY OF
115 SOUTH MAPLE STREET, P.O. BOX 410
BUFFALO, MO 65622
Phone 417-345-2701
Manager: RICK BEHYMER
1803 WEST MILL
BUFFALO, MO 65622
Phone (816) 838-3888
ALT. PHONE 417-345-1120.

Airport Operational Statistics

Aircraft based on the field: 11
Single engine airplanes: 10
Multi engine airplanes: 1
    
Aircraft operations: avg 56/week *
75% local general aviation
25% transient general aviation
* for 12-month period ending 31 December 2017

Additional Remarks

ULTRALIGHT ACFT ON & INVOF ARPT.
WILDLIFE ON AND INVOF ARPT.
INSUF RY SAFETY AREA LENGTH BYD EACH RY END; FENCES, BRUSH, TREES.
APCH SLOPE 8 TO 1 TO HELIPAD FROM NORTHEAST; ARPT BEACON 260 FT SOUTH OF HELIPAD, 5 TO 1 APCH SLOPE.

Instrument Procedures

There are no published instrument procedures at H17.

Some nearby airports with instrument procedures:

M17 - Bolivar Municipal Airport (13 nm W)
KLBO - Floyd W Jones Lebanon Airport (21 nm E)
KOZS - Camdenton Memorial-Lake Regional Airport (27 nm NE)
3DW - Downtown Airport (27 nm S)
KSGF - Springfield-Branson National Airport (28 nm SW)
 
Loc | Ops | Rwys | IFR | FBO | Links
Com | Nav | Svcs | Stats | Notes

Kansas City Aviation Department
 
Area around H17 (Buffalo Municipal Airport)
 
Road maps at: MapQuest Bing Google
 
Aerial photo
WARNING: Photo may not be current or correct
Aerial photo of H17 (Buffalo Municipal Airport)
Do you have a better or more recent aerial photo of Buffalo Municipal Airport that you would like to share? If so, please send us your photo.

 
Sectional chart

 
Airport distance calculator
Flying to Buffalo Municipal Airport? Find the distance to fly.

From to H17

Sunrise and sunset
Times for 20-Mar-2019
 Local
(UTC-5)
 Zulu
(UTC)
Morning civil twilight06:5111:51
Sunrise07:1712:17
Sunset19:2300:23
Evening civil twilight19:4900:49

Current date and time
Zulu (UTC)  20-Mar-2019 14:32:07
Local (UTC-5)  20-Mar-2019 09:32:07
 
METAR
KLBO 
21nm E 
201415Z AUTO 26016G20KT 10SM BKN015 BKN020 OVC026 08/05 A3014 RMK AO2
KOZS 
27nm NE 
201415Z AUTO 24013G17KT 10SM BKN017 OVC023 09/05 A3013 RMK AO2
KSGF 
29nm SW 
201352Z 26009KT 6SM BR OVC007 07/05 A3017 RMK AO2 RAE1255 CIG 007V013 SLP217 P0000 T00670050
KAIZ 
37nm NE 
201356Z AUTO 26012KT 10SM BKN020 OVC028 11/06 A3012 RMK AO2 SLP200 T01060061
TAF
KSGF 
29nm SW 
201129Z 2012/2112 25008KT P6SM -RA OVC050 TEMPO 2013/2015 BKN010 OVC050 FM201500 29009KT P6SM OVC015 FM201700 29010KT P6SM SCT020 BKN035 FM210000 28008KT P6SM SCT100
NOTAMs
Click for the latest NOTAMs
NOTAMs are issued by the DoD/FAA and will open in a separate window not controlled by AirNav.

 

 
 

Would you like to see your business listed on this page?

 If your business provides an interesting product or service to pilots, flight crews, aircraft, or users of the Buffalo Municipal Airport, you should consider listing it here.  To start the listing process, click on the button below
 
Add a business
 

Other Pages about Buffalo Municipal Airport

www.buffalomissouri.us/...
 
Update a link
 
Copyright © AirNav, LLC. All rights reserved. Privacy Policy  Contact